createdAt,value
2024-05-09T00:00:04.931Z,5.60
2024-05-09T00:03:08.376Z,5.75
2024-05-09T00:06:11.056Z,5.43
2024-05-09T00:09:12.499Z,5.50
2024-05-09T00:12:14.139Z,5.18
2024-05-09T00:15:15.660Z,5.90
2024-05-09T00:18:17.299Z,5.68
2024-05-09T00:21:18.797Z,5.57
2024-05-09T00:24:20.212Z,5.75
2024-05-09T00:27:22.650Z,5.25
2024-05-09T00:30:31.461Z,5.30
2024-05-09T00:33:36.626Z,5.53
2024-05-09T00:36:38.131Z,5.65
2024-05-09T00:39:39.529Z,5.78
2024-05-09T00:42:40.972Z,5.75
2024-05-09T00:45:42.917Z,6.20
2024-05-09T00:48:44.615Z,6.55
2024-05-09T00:51:46.122Z,5.80
2024-05-09T00:54:47.784Z,6.00
2024-05-09T00:57:49.448Z,5.75
2024-05-09T01:00:51.081Z,6.63
2024-05-09T01:03:52.737Z,5.80
2024-05-09T01:06:54.230Z,5.55
2024-05-09T01:09:55.606Z,6.25
2024-05-09T01:12:57.019Z,5.53
2024-05-09T01:15:58.585Z,5.28
2024-05-09T01:19:02.618Z,5.28
2024-05-09T01:22:04.567Z,5.38
2024-05-09T01:25:06.454Z,6.18
2024-05-09T01:28:07.893Z,5.25
2024-05-09T01:31:15.202Z,6.60
2024-05-09T01:34:16.661Z,4.50
2024-05-09T01:37:18.150Z,4.38
2024-05-09T01:40:25.319Z,4.22
2024-05-09T01:43:35.314Z,4.85
2024-05-09T01:46:36.702Z,4.60
2024-05-09T01:49:38.243Z,4.90
2024-05-09T01:52:39.751Z,4.35
2024-05-09T01:55:41.232Z,4.63
2024-05-09T01:58:42.681Z,4.90
2024-05-09T02:01:56.298Z,5.13
2024-05-09T02:04:59.252Z,4.82
2024-05-09T02:08:00.769Z,4.78
2024-05-09T02:11:02.306Z,4.72
2024-05-09T02:14:04.753Z,4.90
2024-05-09T02:17:06.246Z,5.15
2024-05-09T02:20:13.090Z,5.10
2024-05-09T02:23:18.269Z,4.95
2024-05-09T02:26:19.798Z,5.35
2024-05-09T02:29:21.416Z,5.07
2024-05-09T02:32:22.932Z,5.65
2024-05-09T02:35:24.435Z,5.45
2024-05-09T02:38:25.924Z,5.55
2024-05-09T02:41:27.412Z,5.03
2024-05-09T02:44:28.959Z,4.75
2024-05-09T02:47:30.681Z,5.00
2024-05-09T02:50:37.921Z,5.20
2024-05-09T02:53:41.227Z,5.35
2024-05-09T02:56:42.689Z,5.80
2024-05-09T02:59:44.099Z,5.45
2024-05-09T03:02:45.650Z,5.28
2024-05-09T03:05:47.309Z,5.68
2024-05-09T03:08:48.781Z,5.90
2024-05-09T03:11:50.410Z,6.72
2024-05-09T03:14:52.002Z,7.78
2024-05-09T03:17:53.591Z,7.03
2024-05-09T03:20:55.046Z,7.00
2024-05-09T03:23:56.522Z,7.10
2024-05-09T03:26:57.905Z,7.72
2024-05-09T03:29:59.318Z,6.93
2024-05-09T03:33:00.930Z,7.70
2024-05-09T03:36:09.097Z,8.80
2024-05-09T03:39:12.134Z,7.93
2024-05-09T03:42:13.643Z,7.93
2024-05-09T03:45:15.150Z,8.45
2024-05-09T03:48:16.850Z,9.70
2024-05-09T03:51:18.598Z,9.00
2024-05-09T03:54:20.003Z,8.98
2024-05-09T03:57:21.383Z,8.25
2024-05-09T04:00:31.084Z,9.73
2024-05-09T04:03:42.046Z,8.57
2024-05-09T04:09:44.873Z,8.40
2024-05-09T04:12:46.252Z,7.88
2024-05-09T04:15:47.688Z,8.52
2024-05-09T04:18:52.007Z,8.90
2024-05-09T04:21:53.579Z,9.38
2024-05-09T04:24:54.978Z,8.90
2024-05-09T04:27:56.395Z,9.82
2024-05-09T04:30:57.784Z,11.05
2024-05-09T04:33:59.338Z,10.20
2024-05-09T04:37:01.190Z,8.98
2024-05-09T04:40:03.109Z,9.23
2024-05-09T04:43:05.094Z,9.55
2024-05-09T04:46:06.580Z,9.95
2024-05-09T04:49:08.181Z,11.35
2024-05-09T04:52:09.624Z,9.30
2024-05-09T04:55:11.044Z,9.48
2024-05-09T04:58:12.573Z,9.55
2024-05-09T05:01:15.032Z,10.73
2024-05-09T05:04:16.608Z,9.23
2024-05-09T05:07:20.977Z,10.23
2024-05-09T05:10:29.523Z,9.13
2024-05-09T05:13:38.585Z,9.70
2024-05-09T05:16:41.392Z,9.43
2024-05-09T05:19:42.852Z,8.82
2024-05-09T05:22:44.345Z,9.73
2024-05-09T05:25:50.543Z,8.35
2024-05-09T05:28:52.097Z,9.90
2024-05-09T05:31:53.608Z,8.52
2024-05-09T05:34:55.070Z,8.68
2024-05-09T05:37:56.618Z,9.70
2024-05-09T05:40:58.187Z,7.72
2024-05-09T05:43:59.644Z,8.02
2024-05-09T05:47:01.087Z,8.88
2024-05-09T05:50:03.789Z,7.68
2024-05-09T05:53:07.681Z,9.32
2024-05-09T05:56:09.954Z,7.55
2024-05-09T05:59:13.393Z,7.18
2024-05-09T06:02:16.722Z,7.47
2024-05-09T06:05:18.396Z,7.90
2024-05-09T06:08:19.940Z,7.47
2024-05-09T06:11:21.429Z,7.28
2024-05-09T06:14:23.016Z,7.70
2024-05-09T06:17:24.806Z,7.90
2024-05-09T06:20:34.478Z,7.32
2024-05-09T06:23:45.145Z,6.80
2024-05-09T06:26:46.625Z,6.93
2024-05-09T06:29:48.068Z,6.18
2024-05-09T06:32:49.577Z,6.43
2024-05-09T06:35:51.099Z,6.63
2024-05-09T06:38:52.532Z,6.68
2024-05-09T06:41:53.997Z,6.10
2024-05-09T06:44:55.723Z,6.38
2024-05-09T06:47:57.283Z,6.05
2024-05-09T06:50:58.842Z,6.28
2024-05-09T06:54:00.251Z,6.10
2024-05-09T06:57:02.002Z,6.00
2024-05-09T07:00:03.899Z,6.10
2024-05-09T07:03:13.986Z,6.03
2024-05-09T07:06:17.878Z,6.53
2024-05-09T07:09:19.415Z,6.25
2024-05-09T07:12:20.945Z,6.15
2024-05-09T07:15:22.423Z,6.20
2024-05-09T07:18:24.011Z,5.95
2024-05-09T07:21:25.691Z,5.47
2024-05-09T07:24:27.151Z,4.95
2024-05-09T07:27:28.550Z,5.70
2024-05-09T07:30:33.409Z,4.82
2024-05-09T07:33:36.056Z,5.30
2024-05-09T07:36:37.617Z,5.38
2024-05-09T07:39:39.540Z,5.13
2024-05-09T07:42:40.991Z,5.20
2024-05-09T07:45:50.794Z,4.85
2024-05-09T07:50:34.883Z,4.95
2024-05-09T07:53:30.004Z,5.32
2024-05-09T07:55:39.200Z,5.13
2024-05-09T07:58:42.846Z,5.10
2024-05-09T08:01:44.397Z,4.35
2024-05-09T08:04:45.924Z,4.80
2024-05-09T08:07:47.559Z,4.22
2024-05-09T08:10:49.000Z,4.40
2024-05-09T08:13:51.619Z,3.95
2024-05-09T08:16:53.141Z,3.63
2024-05-09T08:19:56.095Z,3.53
2024-05-09T08:22:57.504Z,3.70
2024-05-09T08:25:58.984Z,3.40
2024-05-09T08:29:00.455Z,2.47
2024-05-09T08:32:02.147Z,2.47
2024-05-09T08:35:03.699Z,2.70
2024-05-09T08:38:06.066Z,2.78
2024-05-09T08:41:07.607Z,2.88
2024-05-09T08:44:09.589Z,2.70
2024-05-09T08:47:11.105Z,2.83
2024-05-09T08:50:24.169Z,3.00
2024-05-09T08:53:33.315Z,3.03
2024-05-09T08:56:35.129Z,2.70
2024-05-09T08:59:39.568Z,2.67
2024-05-09T09:02:41.295Z,2.10
2024-05-09T09:05:58.340Z,1.90
2024-05-09T09:09:00.151Z,2.20
2024-05-09T09:12:01.666Z,2.67
2024-05-09T09:15:03.151Z,2.47
2024-05-09T09:18:05.249Z,1.90
2024-05-09T09:21:09.935Z,2.00
2024-05-09T09:24:11.438Z,1.95
2024-05-09T09:27:15.703Z,2.30
2024-05-09T09:30:30.864Z,2.05
2024-05-09T09:33:43.065Z,2.03
2024-05-09T09:36:44.674Z,1.95
2024-05-09T09:39:49.086Z,2.08
2024-05-09T09:42:55.557Z,2.15
2024-05-09T09:45:59.639Z,2.20
2024-05-09T09:49:01.493Z,2.13
2024-05-09T09:52:03.025Z,2.10
2024-05-09T09:55:05.458Z,2.17
2024-05-09T09:58:09.661Z,2.17
2024-05-09T10:01:13.422Z,2.28
2024-05-09T10:04:16.312Z,2.30
2024-05-09T10:07:19.381Z,2.00
2024-05-09T10:10:31.423Z,2.13
2024-05-09T10:13:37.073Z,2.03
2024-05-09T10:16:44.579Z,2.20
2024-05-09T10:19:46.419Z,2.60
2024-05-09T10:22:50.752Z,2.03
2024-05-09T10:25:59.035Z,2.20
2024-05-09T10:29:03.383Z,2.10
2024-05-09T10:32:05.306Z,1.98
2024-05-09T10:35:14.980Z,2.00
2024-05-09T10:38:17.486Z,2.65
2024-05-09T10:41:19.813Z,2.40
2024-05-09T10:44:21.320Z,1.95
2024-05-09T10:47:23.081Z,2.50
2024-05-09T10:50:28.689Z,2.50
2024-05-09T10:53:43.289Z,2.00
2024-05-09T10:56:44.838Z,2.05
2024-05-09T10:59:49.036Z,2.20
2024-05-09T11:02:50.606Z,2.20
2024-05-09T11:05:52.884Z,2.13
2024-05-09T11:08:55.289Z,2.00
2024-05-09T11:11:56.802Z,2.10
2024-05-09T11:14:58.345Z,2.30
2024-05-09T11:17:59.800Z,2.63
2024-05-09T11:21:01.472Z,2.00
2024-05-09T11:24:03.035Z,2.00
2024-05-09T11:27:05.601Z,1.95
2024-05-09T11:30:24.178Z,2.33
2024-05-09T11:33:31.476Z,2.05
2024-05-09T11:36:33.110Z,2.42
2024-05-09T11:39:34.769Z,2.17
2024-05-09T11:42:36.219Z,2.60
2024-05-09T11:45:37.728Z,2.50
2024-05-09T11:48:39.561Z,2.10
2024-05-09T11:51:41.287Z,2.30
2024-05-09T11:54:42.791Z,2.85
2024-05-09T11:57:44.409Z,2.40
2024-05-09T12:00:46.247Z,2.10
2024-05-09T12:03:49.617Z,2.50
2024-05-09T12:06:51.227Z,2.50
2024-05-09T12:09:52.746Z,2.00
2024-05-09T12:12:54.254Z,2.10
2024-05-09T12:15:55.674Z,2.50
2024-05-09T12:18:57.493Z,2.40
2024-05-09T12:21:59.089Z,2.40
2024-05-09T12:25:00.518Z,2.42
2024-05-09T12:28:02.080Z,2.10
2024-05-09T12:31:03.660Z,2.55
2024-05-09T12:34:05.241Z,2.22
2024-05-09T12:37:06.733Z,2.17
2024-05-09T12:40:15.831Z,2.63
2024-05-09T12:43:20.181Z,2.00
2024-05-09T12:46:23.140Z,2.58
2024-05-09T12:49:24.879Z,1.92
2024-05-09T12:52:26.443Z,2.22
2024-05-09T12:55:28.578Z,2.30
2024-05-09T12:58:31.640Z,2.50
2024-05-09T13:01:33.371Z,2.30
2024-05-09T13:04:35.173Z,2.15
2024-05-09T13:07:36.795Z,1.95
2024-05-09T13:10:38.221Z,2.17
2024-05-09T13:13:39.745Z,2.35
2024-05-09T13:16:41.237Z,2.10
2024-05-09T13:19:42.713Z,2.38
2024-05-09T13:22:45.397Z,2.47
2024-05-09T13:25:46.853Z,2.50
2024-05-09T13:28:48.351Z,1.95
2024-05-09T13:31:49.828Z,1.95
2024-05-09T13:34:51.292Z,2.30
2024-05-09T13:37:52.722Z,2.65
2024-05-09T13:40:54.454Z,2.00
2024-05-09T13:43:55.988Z,1.88
2024-05-09T13:46:57.487Z,1.90
2024-05-09T13:49:58.979Z,2.70
2024-05-09T13:53:00.445Z,2.67
2024-05-09T13:56:02.006Z,2.10
2024-05-09T13:59:04.320Z,2.50
2024-05-09T14:02:06.265Z,2.10
2024-05-09T14:05:07.969Z,2.58
2024-05-09T14:08:09.813Z,2.00
2024-05-09T14:11:11.521Z,2.00
2024-05-09T14:14:12.964Z,2.30
2024-05-09T14:17:14.493Z,2.30
2024-05-09T14:20:23.844Z,1.90
2024-05-09T14:23:32.014Z,2.00
2024-05-09T14:26:33.469Z,1.58
2024-05-09T14:29:35.376Z,1.70
2024-05-09T14:32:36.874Z,1.90
2024-05-09T14:35:39.048Z,1.90
2024-05-09T14:38:40.808Z,2.40
2024-05-09T14:41:42.249Z,1.80
2024-05-09T14:44:43.654Z,1.80
2024-05-09T14:47:45.191Z,2.38
2024-05-09T14:50:46.736Z,2.70
2024-05-09T14:53:48.138Z,1.80
2024-05-09T14:56:52.584Z,2.42
2024-05-09T14:59:54.011Z,1.75
2024-05-09T15:02:55.496Z,1.90
2024-05-09T15:05:57.158Z,2.63
2024-05-09T15:08:58.968Z,1.80
2024-05-09T15:12:00.377Z,2.30
2024-05-09T15:15:01.828Z,2.20
2024-05-09T15:18:06.898Z,2.20
2024-05-09T15:21:08.528Z,1.90
2024-05-09T15:24:10.115Z,1.90
2024-05-09T15:27:11.923Z,2.05
2024-05-09T15:30:15.508Z,2.03
2024-05-09T15:33:19.595Z,2.10
2024-05-09T15:36:21.050Z,2.05
2024-05-09T15:39:24.447Z,2.13
2024-05-09T15:42:25.961Z,1.90
2024-05-09T15:45:28.948Z,2.00
2024-05-09T15:51:32.069Z,2.42
2024-05-09T15:54:33.478Z,1.88
2024-05-09T15:57:37.564Z,2.08
2024-05-09T16:00:42.269Z,5.60
2024-05-09T16:03:45.401Z,18.52
2024-05-09T16:06:48.062Z,16.75
2024-05-09T16:09:49.618Z,3.63
2024-05-09T16:12:51.082Z,2.10
2024-05-09T16:15:52.812Z,2.08
2024-05-09T16:18:54.581Z,1.80
2024-05-09T16:21:58.136Z,2.25
2024-05-09T16:24:59.708Z,2.10
2024-05-09T16:28:01.610Z,2.13
2024-05-09T16:31:03.318Z,2.00
2024-05-09T16:34:05.007Z,2.10
2024-05-09T16:37:10.210Z,1.90
2024-05-09T16:40:21.772Z,1.90
2024-05-09T16:43:31.185Z,2.10
2024-05-09T16:46:32.712Z,2.50
2024-05-09T16:49:34.234Z,2.40
2024-05-09T16:52:35.642Z,2.85
2024-05-09T16:55:37.203Z,2.58
2024-05-09T16:58:38.991Z,2.50
2024-05-09T17:01:40.501Z,2.50
2024-05-09T17:04:42.789Z,2.55
2024-05-09T17:07:46.065Z,2.53
2024-05-09T17:10:50.817Z,2.53
2024-05-09T17:13:52.471Z,2.80
2024-05-09T17:16:53.912Z,2.05
2024-05-09T17:19:55.353Z,2.00
2024-05-09T17:22:56.760Z,2.72
2024-05-09T17:25:58.178Z,2.60
2024-05-09T17:29:00.806Z,2.00
2024-05-09T17:32:02.295Z,2.05
2024-05-09T17:35:03.857Z,2.30
2024-05-09T17:38:06.337Z,3.08
2024-05-09T17:41:07.955Z,1.90
2024-05-09T17:44:09.893Z,2.25
2024-05-09T17:47:11.329Z,2.30
2024-05-09T17:50:20.928Z,2.20
2024-05-09T17:53:28.281Z,2.53
2024-05-09T17:56:29.707Z,2.80
2024-05-09T17:59:31.119Z,2.35
2024-05-09T18:02:33.187Z,2.00
2024-05-09T18:05:35.565Z,2.20
2024-05-09T18:08:37.883Z,2.30
2024-05-09T18:11:40.474Z,2.00
2024-05-09T18:14:41.870Z,2.13
2024-05-09T18:17:43.636Z,2.22
2024-05-09T18:20:47.722Z,2.33
2024-05-09T18:23:51.942Z,2.28
2024-05-09T18:26:53.730Z,2.40
2024-05-09T18:29:55.139Z,2.45
2024-05-09T18:32:56.634Z,2.00
2024-05-09T18:35:58.097Z,2.30
2024-05-09T18:38:59.822Z,2.25
2024-05-09T18:42:01.890Z,2.40
2024-05-09T18:45:05.156Z,2.25
2024-05-09T18:48:10.791Z,2.13
2024-05-09T18:51:12.288Z,2.80
2024-05-09T18:54:13.924Z,2.58
2024-05-09T18:57:15.331Z,2.40
2024-05-09T19:00:30.723Z,2.50
2024-05-09T19:03:38.718Z,2.42
2024-05-09T19:06:40.652Z,2.28
2024-05-09T19:09:42.083Z,2.35
2024-05-09T19:12:43.504Z,2.55
2024-05-09T19:15:45.270Z,3.28
2024-05-09T19:18:46.990Z,2.97
2024-05-09T19:21:48.508Z,3.90
2024-05-09T19:24:50.173Z,2.78
2024-05-09T19:27:54.705Z,2.72
2024-05-09T19:30:56.241Z,3.45
2024-05-09T19:33:57.721Z,2.70
2024-05-09T19:37:01.326Z,2.47
2024-05-09T19:40:03.511Z,3.17
2024-05-09T19:43:07.046Z,2.92
2024-05-09T19:46:09.743Z,3.92
2024-05-09T19:49:11.384Z,2.92
2024-05-09T19:52:13.037Z,2.47
2024-05-09T19:55:14.675Z,2.85
2024-05-09T19:58:16.379Z,2.72
2024-05-09T20:01:17.988Z,3.15
2024-05-09T20:04:19.624Z,2.97
2024-05-09T20:07:21.169Z,2.75
2024-05-09T20:10:26.230Z,2.88
2024-05-09T20:13:31.250Z,2.80
2024-05-09T20:16:32.757Z,3.28
2024-05-09T20:19:34.524Z,2.60
2024-05-09T20:22:36.104Z,2.78
2024-05-09T20:25:37.685Z,3.78
2024-05-09T20:28:39.175Z,3.45
2024-05-09T20:31:41.248Z,3.50
2024-05-09T20:34:42.722Z,3.33
2024-05-09T20:37:44.150Z,3.17
2024-05-09T20:40:46.136Z,3.53
2024-05-09T20:43:47.690Z,2.88
2024-05-09T20:46:49.091Z,3.15
2024-05-09T20:49:52.268Z,3.22
2024-05-09T20:52:53.707Z,3.80
2024-05-09T20:55:55.115Z,4.60
2024-05-09T20:58:57.192Z,3.72
2024-05-09T21:01:58.678Z,3.40
2024-05-09T21:05:00.419Z,3.13
2024-05-09T21:08:02.031Z,4.25
2024-05-09T21:11:03.593Z,3.72
2024-05-09T21:14:05.017Z,4.28
2024-05-09T21:17:06.467Z,4.20
2024-05-09T21:20:14.186Z,3.38
2024-05-09T21:23:18.569Z,3.60
2024-05-09T21:26:22.977Z,3.80
2024-05-09T21:29:24.476Z,3.10
2024-05-09T21:32:26.015Z,5.20
2024-05-09T21:35:27.476Z,3.15
2024-05-09T21:38:28.878Z,3.40
2024-05-09T21:41:30.321Z,3.80
2024-05-09T21:44:31.757Z,3.80
2024-05-09T21:47:34.582Z,3.65
2024-05-09T21:50:40.516Z,4.30
2024-05-09T21:53:43.627Z,3.70
2024-05-09T21:56:45.030Z,3.53
2024-05-09T21:59:47.429Z,4.43
2024-05-09T22:02:48.879Z,5.28
2024-05-09T22:05:50.347Z,3.40
2024-05-09T22:08:51.727Z,4.07
2024-05-09T22:11:54.500Z,3.83
2024-05-09T22:14:55.978Z,3.38
2024-05-09T22:17:57.768Z,3.90
2024-05-09T22:20:59.413Z,3.47
2024-05-09T22:24:00.816Z,4.05
2024-05-09T22:27:02.220Z,3.47
2024-05-09T22:30:07.176Z,3.50
2024-05-09T22:33:13.246Z,3.60
2024-05-09T22:36:14.813Z,3.63
2024-05-09T22:39:16.810Z,4.13
2024-05-09T22:42:18.288Z,6.35
2024-05-09T22:45:19.727Z,3.75
2024-05-09T22:48:21.465Z,3.83
2024-05-09T22:51:22.976Z,3.72
2024-05-09T22:54:24.358Z,3.35
2024-05-09T22:57:25.767Z,4.38
2024-05-09T23:00:31.674Z,3.33
2024-05-09T23:03:34.653Z,3.47
2024-05-09T23:06:39.832Z,3.58
2024-05-09T23:09:44.336Z,3.42
2024-05-09T23:12:45.804Z,3.35
2024-05-09T23:15:47.259Z,3.47
2024-05-09T23:18:48.909Z,3.28
2024-05-09T23:21:50.383Z,4.55
2024-05-09T23:24:51.846Z,3.60
2024-05-09T23:27:53.467Z,4.28
2024-05-09T23:30:54.954Z,3.97
2024-05-09T23:33:56.614Z,4.00
2024-05-09T23:36:58.285Z,4.32
2024-05-09T23:39:59.766Z,3.78
2024-05-09T23:43:01.228Z,3.97
2024-05-09T23:46:02.811Z,3.63
2024-05-09T23:49:04.445Z,3.95
2024-05-09T23:52:06.004Z,4.43
2024-05-09T23:55:07.585Z,3.90
2024-05-09T23:58:09.405Z,3.70
